createdAt,value
2023-04-28T00:01:14.710Z,8.15
2023-04-28T00:03:43.810Z,10.23
2023-04-28T00:06:13.230Z,9.30
2023-04-28T00:08:43.944Z,11.25
2023-04-28T00:11:13.091Z,10.27
2023-04-28T00:13:42.035Z,9.05
2023-04-28T00:16:11.051Z,8.80
2023-04-28T00:18:40.290Z,8.40
2023-04-28T00:21:09.599Z,12.23
2023-04-28T00:23:38.619Z,11.65
2023-04-28T00:26:09.247Z,8.45
2023-04-28T00:28:38.167Z,8.93
2023-04-28T00:31:16.679Z,10.38
2023-04-28T00:33:46.145Z,8.93
2023-04-28T00:36:15.192Z,8.10
2023-04-28T00:38:44.201Z,9.90
2023-04-28T00:41:16.383Z,8.82
2023-04-28T00:43:49.556Z,11.13
2023-04-28T00:46:24.031Z,9.88
2023-04-28T00:48:53.183Z,11.13
2023-04-28T00:51:22.461Z,11.10
2023-04-28T00:53:52.451Z,9.85
2023-04-28T00:56:23.430Z,10.85
2023-04-28T00:58:52.375Z,10.57
2023-04-28T01:01:21.397Z,10.82
2023-04-28T01:03:50.715Z,10.48
2023-04-28T01:06:21.304Z,10.73
2023-04-28T01:08:54.338Z,10.40
2023-04-28T01:11:25.017Z,11.13
2023-04-28T01:13:54.137Z,9.27
2023-04-28T01:16:23.206Z,10.85
2023-04-28T01:18:52.218Z,11.10
2023-04-28T01:21:29.894Z,8.23
2023-04-28T01:24:00.915Z,9.30
2023-04-28T01:26:29.927Z,8.85
2023-04-28T01:28:58.920Z,8.57
2023-04-28T01:31:27.984Z,8.30
2023-04-28T01:33:57.053Z,8.60
2023-04-28T01:36:28.133Z,9.13
2023-04-28T01:38:57.135Z,10.43
2023-04-28T01:41:27.945Z,8.77
2023-04-28T01:43:57.018Z,8.32
2023-04-28T01:46:26.102Z,9.35
2023-04-28T01:48:55.240Z,8.30
2023-04-28T01:51:24.327Z,12.60
2023-04-28T01:53:53.270Z,10.32
2023-04-28T01:56:22.184Z,9.15
2023-04-28T01:58:52.816Z,10.70
2023-04-28T02:01:21.901Z,10.68
2023-04-28T02:03:51.416Z,11.20
2023-04-28T02:06:20.561Z,8.98
2023-04-28T02:08:49.515Z,8.85
2023-04-28T02:11:18.462Z,10.55
2023-04-28T02:13:48.178Z,8.32
2023-04-28T02:16:18.851Z,9.07
2023-04-28T02:18:47.915Z,9.93
2023-04-28T02:21:16.880Z,9.63
2023-04-28T02:23:45.823Z,12.02
2023-04-28T02:26:14.825Z,8.70
2023-04-28T02:28:43.769Z,9.98
2023-04-28T02:31:14.849Z,10.38
2023-04-28T02:33:45.557Z,10.18
2023-04-28T02:36:14.604Z,8.10
2023-04-28T02:38:43.672Z,11.07
2023-04-28T02:41:12.915Z,9.20
2023-04-28T02:43:42.067Z,10.40
2023-04-28T02:46:12.070Z,8.75
2023-04-28T02:48:41.699Z,9.90
2023-04-28T02:51:12.707Z,10.35
2023-04-28T02:53:41.736Z,10.82
2023-04-28T02:56:10.802Z,9.82
2023-04-28T02:58:39.850Z,9.95
2023-04-28T03:01:08.913Z,11.77
2023-04-28T03:03:38.046Z,11.25
2023-04-28T03:06:07.717Z,10.68
2023-04-28T03:08:38.353Z,9.63
2023-04-28T03:11:07.441Z,11.95
2023-04-28T03:13:37.089Z,11.27
2023-04-28T03:16:07.113Z,11.40
2023-04-28T03:18:36.451Z,8.95
2023-04-28T03:21:05.642Z,11.00
2023-04-28T03:23:34.664Z,11.82
2023-04-28T03:26:05.278Z,11.45
2023-04-28T03:28:34.329Z,10.75
2023-04-28T03:31:03.697Z,9.25
2023-04-28T03:33:32.714Z,10.82
2023-04-28T03:36:01.810Z,11.02
2023-04-28T03:38:30.762Z,9.82
2023-04-28T03:40:59.707Z,9.80
2023-04-28T03:43:30.409Z,9.48
2023-04-28T03:45:59.368Z,12.10
2023-04-28T03:48:28.419Z,12.07
2023-04-28T03:50:57.527Z,11.95
2023-04-28T03:53:26.463Z,11.23
2023-04-28T03:55:55.494Z,11.48
2023-04-28T03:58:24.711Z,10.77
2023-04-28T04:00:55.337Z,10.52
2023-04-28T04:03:27.247Z,12.35
2023-04-28T04:05:56.667Z,15.23
2023-04-28T04:08:25.742Z,14.07
2023-04-28T04:10:55.747Z,14.82
2023-04-28T04:13:24.761Z,14.38
2023-04-28T04:15:55.496Z,15.73
2023-04-28T04:18:24.828Z,13.52
2023-04-28T04:20:58.124Z,17.52
2023-04-28T04:23:27.212Z,16.77
2023-04-28T04:25:56.538Z,15.38
2023-04-28T04:28:25.570Z,14.82
2023-04-28T04:30:56.236Z,16.55
2023-04-28T04:33:25.301Z,16.40
2023-04-28T04:35:54.473Z,17.83
2023-04-28T04:38:23.505Z,17.52
2023-04-28T04:40:52.563Z,22.75
2023-04-28T04:43:22.221Z,20.40
2023-04-28T04:45:51.365Z,18.05
2023-04-28T04:48:21.999Z,17.77
2023-04-28T04:50:51.033Z,18.48
2023-04-28T04:53:20.063Z,17.42
2023-04-28T04:55:49.097Z,18.83
2023-04-28T04:58:18.830Z,16.58
2023-04-28T05:00:47.813Z,16.77
2023-04-28T05:03:17.353Z,17.52
2023-04-28T05:05:48.723Z,19.83
2023-04-28T05:08:18.043Z,19.52
2023-04-28T05:10:47.124Z,19.05
2023-04-28T05:13:16.195Z,17.08
2023-04-28T05:15:45.192Z,19.85
2023-04-28T05:18:14.967Z,19.90
2023-04-28T05:20:44.072Z,19.92
2023-04-28T05:23:14.821Z,20.83
2023-04-28T05:25:43.816Z,21.58
2023-04-28T05:28:13.048Z,20.45
2023-04-28T05:30:42.170Z,25.35
2023-04-28T05:33:11.536Z,20.55
2023-04-28T05:35:40.628Z,24.45
2023-04-28T05:38:09.704Z,24.70
2023-04-28T05:40:40.341Z,24.60
2023-04-28T05:43:09.340Z,24.20
2023-04-28T05:45:38.309Z,23.73
2023-04-28T05:48:08.162Z,24.23
2023-04-28T05:50:38.912Z,25.88
2023-04-28T05:53:08.529Z,26.83
2023-04-28T05:55:37.542Z,27.30
2023-04-28T05:58:09.219Z,25.10
2023-04-28T06:00:38.208Z,26.27
2023-04-28T06:03:16.658Z,26.50
2023-04-28T06:05:46.291Z,26.10
2023-04-28T06:08:15.577Z,25.75
2023-04-28T06:10:44.585Z,27.98
2023-04-28T06:13:15.455Z,27.30
2023-04-28T06:15:44.517Z,25.70
2023-04-28T06:18:13.776Z,29.00
2023-04-28T06:20:42.838Z,25.27
2023-04-28T06:23:11.993Z,27.77
2023-04-28T06:25:40.959Z,29.63
2023-04-28T06:28:09.967Z,28.40
2023-04-28T06:30:40.568Z,29.08
2023-04-28T06:33:09.961Z,28.90
2023-04-28T06:35:39.982Z,28.65
2023-04-28T06:38:09.145Z,35.15
2023-04-28T06:40:38.232Z,29.50
2023-04-28T06:43:07.360Z,28.65
2023-04-28T06:45:36.379Z,32.65
2023-04-28T06:48:08.805Z,28.67
2023-04-28T06:50:39.014Z,30.23
2023-04-28T06:53:08.565Z,29.48
2023-04-28T06:55:37.734Z,29.50
2023-04-28T06:58:06.933Z,31.17
2023-04-28T07:00:36.427Z,32.47
2023-04-28T07:03:07.238Z,31.48
2023-04-28T07:05:37.126Z,33.40
2023-04-28T07:08:06.396Z,31.77
2023-04-28T07:10:35.387Z,33.03
2023-04-28T07:13:04.338Z,38.97
2023-04-28T07:15:33.373Z,36.05
2023-04-28T07:18:03.021Z,37.00
2023-04-28T07:20:33.667Z,36.13
2023-04-28T07:23:02.659Z,36.50
2023-04-28T07:25:31.724Z,37.25
2023-04-28T07:28:00.803Z,39.78
2023-04-28T07:30:30.060Z,37.65
2023-04-28T07:32:59.488Z,41.00
2023-04-28T07:35:28.748Z,41.40
2023-04-28T07:37:59.661Z,38.03
2023-04-28T07:40:28.639Z,40.47
2023-04-28T07:42:57.583Z,41.13
2023-04-28T07:45:27.102Z,39.63
2023-04-28T07:47:56.121Z,38.90
2023-04-28T07:50:25.685Z,38.40
2023-04-28T07:52:54.705Z,38.67
2023-04-28T07:55:25.381Z,41.17
2023-04-28T07:57:54.566Z,42.30
2023-04-28T08:00:23.643Z,44.67
2023-04-28T08:02:52.904Z,41.38
2023-04-28T08:05:22.230Z,47.85
2023-04-28T08:07:51.307Z,45.20
2023-04-28T08:10:20.320Z,44.88
2023-04-28T08:12:51.010Z,45.40
2023-04-28T08:15:20.349Z,47.15
2023-04-28T08:17:49.432Z,46.10
2023-04-28T08:20:23.162Z,47.60
2023-04-28T08:22:53.635Z,49.53
2023-04-28T08:25:22.894Z,50.80
2023-04-28T08:27:54.810Z,47.10
2023-04-28T08:30:24.870Z,50.28
2023-04-28T08:32:54.020Z,48.55
2023-04-28T08:35:23.233Z,51.38
2023-04-28T08:37:53.876Z,53.08
2023-04-28T08:40:24.997Z,52.60
2023-04-28T08:42:57.200Z,51.85
2023-04-28T08:45:28.380Z,53.13
2023-04-28T08:48:01.052Z,54.13
2023-04-28T08:50:32.722Z,54.42
2023-04-28T08:53:05.456Z,57.20
2023-04-28T08:55:35.831Z,56.40
2023-04-28T08:58:07.007Z,54.30
2023-04-28T09:00:39.060Z,56.13
2023-04-28T09:03:09.857Z,54.60
2023-04-28T09:05:39.054Z,54.75
2023-04-28T09:08:08.788Z,53.92
2023-04-28T09:10:38.994Z,57.47
2023-04-28T09:13:09.904Z,59.35
2023-04-28T09:15:43.168Z,56.17
2023-04-28T09:18:16.561Z,55.92
2023-04-28T09:20:46.756Z,53.95
2023-04-28T09:23:18.279Z,62.88
2023-04-28T09:26:05.234Z,57.70
2023-04-28T09:28:37.243Z,58.33
2023-04-28T09:31:06.402Z,57.85
2023-04-28T09:33:35.617Z,59.05
2023-04-28T09:36:04.716Z,58.10
2023-04-28T09:38:44.172Z,60.20
2023-04-28T09:41:13.212Z,58.55
2023-04-28T09:43:43.842Z,58.72
2023-04-28T09:46:13.250Z,59.38
2023-04-28T09:48:42.316Z,60.83
2023-04-28T09:51:13.026Z,59.70
2023-04-28T09:53:42.361Z,61.75
2023-04-28T09:56:12.682Z,64.38
2023-04-28T09:58:46.474Z,60.35
2023-04-28T10:01:16.134Z,54.95
2023-04-28T10:03:47.316Z,59.30
2023-04-28T10:06:16.918Z,59.00
2023-04-28T10:08:49.066Z,62.33
2023-04-28T10:11:18.582Z,61.70
2023-04-28T10:13:50.078Z,62.13
2023-04-28T10:16:19.921Z,58.45
2023-04-28T10:18:48.975Z,60.90
2023-04-28T10:21:22.133Z,55.67
2023-04-28T10:24:07.204Z,67.82
2023-04-28T10:27:06.579Z,68.22
2023-04-28T10:29:38.430Z,62.97
2023-04-28T10:32:24.851Z,62.05
2023-04-28T10:34:54.036Z,58.13
2023-04-28T10:38:00.899Z,60.05
2023-04-28T10:40:36.536Z,63.60
2023-04-28T10:43:08.708Z,61.25
2023-04-28T10:46:10.073Z,64.22
2023-04-28T10:48:59.799Z,64.60
2023-04-28T10:51:32.792Z,63.13
2023-04-28T10:54:20.444Z,60.45
2023-04-28T10:57:17.742Z,65.68
2023-04-28T11:02:44.420Z,63.10
2023-04-28T11:05:16.081Z,62.45
2023-04-28T11:08:32.286Z,61.40
2023-04-28T11:11:21.976Z,66.65
2023-04-28T11:13:51.916Z,67.90
2023-04-28T11:16:22.934Z,66.30
2023-04-28T11:18:59.954Z,62.90
2023-04-28T11:21:29.396Z,70.10
2023-04-28T11:23:59.683Z,71.90
2023-04-28T11:26:29.415Z,70.07
2023-04-28T11:28:59.604Z,68.13
2023-04-28T11:31:29.498Z,67.95
2023-04-28T11:34:04.768Z,70.68
2023-04-28T11:36:36.805Z,71.38
2023-04-28T11:39:08.202Z,67.80
2023-04-28T11:41:37.738Z,71.07
2023-04-28T11:44:14.005Z,67.47
2023-04-28T11:49:22.787Z,66.63
2023-04-28T11:51:52.629Z,66.90
2023-04-28T11:54:26.294Z,70.20
2023-04-28T11:56:58.897Z,71.72
2023-04-28T11:59:28.981Z,71.25
2023-04-28T12:02:00.216Z,74.15
2023-04-28T12:04:41.286Z,67.13
2023-04-28T12:07:11.430Z,68.00
2023-04-28T12:09:42.556Z,70.20
2023-04-28T12:12:13.461Z,75.47
2023-04-28T12:14:59.120Z,68.38
2023-04-28T12:17:29.019Z,68.32
2023-04-28T12:20:01.777Z,73.20
2023-04-28T12:22:31.501Z,71.13
2023-04-28T12:25:08.646Z,69.82
2023-04-28T12:27:40.185Z,66.97
2023-04-28T12:30:26.921Z,70.75
2023-04-28T12:35:28.896Z,73.75
2023-04-28T12:37:59.676Z,69.88
2023-04-28T12:40:28.756Z,63.08
2023-04-28T12:42:58.132Z,68.05
2023-04-28T12:45:27.105Z,71.72
2023-04-28T12:47:56.296Z,66.90
2023-04-28T12:50:28.700Z,68.65
2023-04-28T12:52:58.703Z,69.50
2023-04-28T12:55:28.040Z,69.53
2023-04-28T12:57:57.147Z,69.25
2023-04-28T13:00:26.392Z,68.63
2023-04-28T13:02:55.442Z,66.20
2023-04-28T13:05:24.541Z,67.30
2023-04-28T13:07:55.378Z,70.05
2023-04-28T13:10:24.540Z,68.93
2023-04-28T13:12:53.481Z,71.97
2023-04-28T13:15:22.718Z,70.65
2023-04-28T13:17:51.962Z,71.32
2023-04-28T13:20:20.989Z,75.18
2023-04-28T13:22:50.223Z,68.53
2023-04-28T13:25:20.993Z,64.40
2023-04-28T13:28:06.166Z,67.25
2023-04-28T13:30:35.701Z,71.00
2023-04-28T13:33:04.714Z,68.82
2023-04-28T13:35:34.198Z,68.60
2023-04-28T13:38:03.266Z,68.63
2023-04-28T13:40:34.881Z,63.47
2023-04-28T13:43:04.542Z,64.63
2023-04-28T13:45:33.630Z,69.97
2023-04-28T13:48:04.128Z,61.67
2023-04-28T13:50:33.453Z,64.05
2023-04-28T13:53:02.426Z,63.35
2023-04-28T13:55:33.598Z,64.45
2023-04-28T13:58:05.516Z,65.90
2023-04-28T14:00:35.627Z,61.75
2023-04-28T14:03:04.891Z,67.35
2023-04-28T14:05:45.813Z,61.42
2023-04-28T14:08:20.116Z,65.88
2023-04-28T14:10:52.082Z,67.10
2023-04-28T14:13:21.867Z,63.70
2023-04-28T14:15:59.244Z,68.95
2023-04-28T14:18:28.931Z,68.63
2023-04-28T14:20:57.978Z,63.40
2023-04-28T14:23:27.553Z,66.07
2023-04-28T14:25:59.136Z,61.42
2023-04-28T14:28:29.197Z,61.78
2023-04-28T14:30:58.320Z,64.22
2023-04-28T14:33:27.830Z,60.65
2023-04-28T14:35:56.808Z,63.97
2023-04-28T14:38:25.900Z,60.00
2023-04-28T14:40:56.534Z,63.47
2023-04-28T14:43:25.910Z,62.20
2023-04-28T14:45:55.284Z,66.93
2023-04-28T14:48:24.572Z,62.60
2023-04-28T14:50:53.798Z,60.08
2023-04-28T14:53:22.778Z,61.42
2023-04-28T14:55:51.853Z,65.28
2023-04-28T14:58:22.605Z,60.28
2023-04-28T15:00:53.165Z,66.65
2023-04-28T15:03:22.506Z,66.57
2023-04-28T15:05:51.639Z,55.05
2023-04-28T15:08:20.653Z,53.20
2023-04-28T15:10:49.625Z,52.67
2023-04-28T15:13:18.814Z,56.10
2023-04-28T15:15:49.839Z,58.70
2023-04-28T15:18:18.941Z,57.88
2023-04-28T15:20:48.683Z,52.50
2023-04-28T15:23:18.289Z,56.03
2023-04-28T15:25:48.023Z,56.63
2023-04-28T15:28:17.210Z,52.60
2023-04-28T15:30:46.505Z,52.78
2023-04-28T15:33:20.252Z,58.03
2023-04-28T15:35:49.279Z,52.03
2023-04-28T15:38:18.501Z,51.67
2023-04-28T15:40:47.962Z,52.95
2023-04-28T15:43:17.052Z,53.20
2023-04-28T15:45:47.712Z,48.67
2023-04-28T15:48:18.420Z,48.88
2023-04-28T15:50:47.401Z,53.28
2023-04-28T15:53:16.557Z,55.80
2023-04-28T15:55:46.868Z,49.35
2023-04-28T15:58:15.890Z,45.90
2023-04-28T16:00:46.608Z,46.80
2023-04-28T16:03:15.803Z,51.40
2023-04-28T16:05:46.706Z,45.60
2023-04-28T16:08:16.268Z,46.15
2023-04-28T16:10:45.464Z,44.00
2023-04-28T16:13:14.476Z,45.83
2023-04-28T16:15:43.732Z,44.47
2023-04-28T16:18:12.885Z,44.22
2023-04-28T16:20:42.136Z,45.33
2023-04-28T16:23:14.049Z,44.80
2023-04-28T16:25:43.576Z,45.45
2023-04-28T16:28:12.525Z,43.42
2023-04-28T16:30:41.912Z,46.40
2023-04-28T16:33:11.140Z,44.92
2023-04-28T16:35:40.088Z,41.83
2023-04-28T16:38:09.778Z,44.88
2023-04-28T16:40:40.449Z,43.90
2023-04-28T16:43:09.705Z,47.15
2023-04-28T16:45:38.750Z,40.97
2023-04-28T16:48:07.835Z,42.47
2023-04-28T16:50:38.695Z,40.10
2023-04-28T16:53:09.393Z,44.25
2023-04-28T16:55:40.061Z,39.53
2023-04-28T16:58:09.036Z,41.65
2023-04-28T17:00:38.032Z,43.40
2023-04-28T17:03:07.149Z,33.10
2023-04-28T17:05:36.731Z,42.45
2023-04-28T17:08:05.748Z,47.90
2023-04-28T17:10:38.419Z,46.03
2023-04-28T17:13:10.008Z,45.20
2023-04-28T17:15:39.349Z,44.42
2023-04-28T17:18:08.562Z,41.20
2023-04-28T17:20:39.045Z,41.50
2023-04-28T17:23:08.004Z,42.75
2023-04-28T17:25:39.692Z,35.55
2023-04-28T17:28:10.316Z,38.25
2023-04-28T17:30:40.781Z,41.70
2023-04-28T17:33:11.347Z,41.00
2023-04-28T17:35:40.625Z,42.90
2023-04-28T17:38:09.652Z,45.33
2023-04-28T17:40:39.049Z,35.38
2023-04-28T17:43:10.215Z,39.53
2023-04-28T17:45:39.209Z,45.53
2023-04-28T17:48:08.464Z,44.75
2023-04-28T17:50:37.534Z,43.78
2023-04-28T17:53:06.550Z,39.35
2023-04-28T17:55:35.511Z,45.63
2023-04-28T17:58:04.931Z,34.97
2023-04-28T18:00:35.580Z,43.58
2023-04-28T18:03:04.638Z,49.13
2023-04-28T18:05:35.955Z,46.03
2023-04-28T18:08:05.270Z,37.40
2023-04-28T18:10:35.128Z,43.85
2023-04-28T18:13:04.335Z,42.95
2023-04-28T18:15:35.000Z,46.30
2023-04-28T18:18:04.348Z,43.90
2023-04-28T18:20:33.468Z,42.70
2023-04-28T18:23:02.984Z,45.63
2023-04-28T18:25:33.119Z,42.20
2023-04-28T18:28:02.581Z,44.28
2023-04-28T18:30:40.211Z,50.20
2023-04-28T18:33:11.480Z,46.45
2023-04-28T18:35:40.553Z,42.17
2023-04-28T18:38:09.508Z,45.03
2023-04-28T18:40:39.604Z,35.95
2023-04-28T18:43:11.459Z,46.88
2023-04-28T18:45:42.659Z,42.40
2023-04-28T18:48:14.814Z,41.72
2023-04-28T18:50:43.870Z,43.90
2023-04-28T18:53:12.916Z,35.33
2023-04-28T18:55:41.912Z,49.88
2023-04-28T18:58:11.600Z,46.70
2023-04-28T19:00:40.685Z,45.00
2023-04-28T19:03:10.568Z,54.83
2023-04-28T19:05:43.966Z,43.85
2023-04-28T19:08:13.264Z,39.80
2023-04-28T19:10:42.357Z,53.63
2023-04-28T19:13:12.436Z,44.92
2023-04-28T19:15:41.487Z,45.22
2023-04-28T19:18:10.564Z,41.97
2023-04-28T19:20:43.556Z,45.75
2023-04-28T19:23:12.557Z,37.42
2023-04-28T19:25:41.531Z,41.05
2023-04-28T19:28:12.478Z,36.85
2023-04-28T19:30:41.517Z,41.42
2023-04-28T19:33:10.552Z,40.83
2023-04-28T19:35:41.318Z,34.65
2023-04-28T19:38:10.452Z,35.22
2023-04-28T19:40:39.984Z,36.25
2023-04-28T19:43:08.968Z,32.13
2023-04-28T19:45:37.945Z,34.03
2023-04-28T19:48:07.950Z,30.05
2023-04-28T19:50:39.152Z,37.67
2023-04-28T19:53:10.174Z,34.42
2023-04-28T19:55:39.501Z,41.30
2023-04-28T19:58:10.623Z,40.70
2023-04-28T20:00:39.670Z,33.17
2023-04-28T20:03:09.622Z,35.75
2023-04-28T20:05:39.825Z,36.58
2023-04-28T20:08:10.499Z,33.65
2023-04-28T20:10:39.468Z,30.80
2023-04-28T20:13:08.512Z,30.90
2023-04-28T20:15:37.769Z,33.15
2023-04-28T20:18:06.842Z,31.88
2023-04-28T20:20:35.989Z,35.97
2023-04-28T20:23:05.018Z,35.95
2023-04-28T20:25:37.397Z,35.10
2023-04-28T20:28:06.772Z,40.00
2023-04-28T20:30:35.726Z,37.42
2023-04-28T20:33:04.815Z,37.20
2023-04-28T20:35:33.797Z,34.15
2023-04-28T20:38:02.906Z,41.85
2023-04-28T20:40:31.834Z,37.13
2023-04-28T20:43:04.204Z,38.05
2023-04-28T20:45:33.275Z,36.00
2023-04-28T20:48:03.164Z,32.15
2023-04-28T20:50:34.125Z,33.40
2023-04-28T20:53:03.129Z,30.20
2023-04-28T20:55:32.363Z,34.15
2023-04-28T20:58:03.604Z,34.58
2023-04-28T21:00:34.470Z,29.42
2023-04-28T21:03:05.394Z,29.52
2023-04-28T21:05:34.516Z,34.78
2023-04-28T21:08:03.472Z,32.30
2023-04-28T21:10:33.818Z,33.28
2023-04-28T21:13:04.764Z,27.42
2023-04-28T21:15:38.432Z,27.50
2023-04-28T21:18:07.595Z,28.92
2023-04-28T21:20:36.609Z,33.80
2023-04-28T21:23:05.680Z,27.02
2023-04-28T21:25:34.639Z,25.70
2023-04-28T21:28:05.593Z,35.58
2023-04-28T21:30:34.580Z,31.20
2023-04-28T21:33:03.890Z,33.70
2023-04-28T21:35:32.947Z,31.48
2023-04-28T21:38:01.980Z,27.88
2023-04-28T21:40:31.031Z,35.10
2023-04-28T21:43:00.352Z,28.20
2023-04-28T21:45:30.985Z,25.25
2023-04-28T21:48:01.003Z,27.02
2023-04-28T21:50:29.995Z,26.70
2023-04-28T21:53:00.098Z,25.75
2023-04-28T21:55:29.134Z,28.80
2023-04-28T21:58:00.113Z,28.90
2023-04-28T22:00:31.394Z,23.20
2023-04-28T22:03:00.602Z,24.88
2023-04-28T22:05:30.034Z,26.58
2023-04-28T22:07:59.160Z,23.20
2023-04-28T22:10:28.399Z,25.90
2023-04-28T22:12:57.416Z,21.02
2023-04-28T22:15:26.600Z,23.45
2023-04-28T22:17:57.329Z,23.75
2023-04-28T22:20:26.378Z,26.92
2023-04-28T22:22:55.480Z,24.13
2023-04-28T22:25:24.472Z,27.70
2023-04-28T22:27:53.555Z,29.20
2023-04-28T22:30:25.010Z,24.23
2023-04-28T22:32:56.739Z,23.75
2023-04-28T22:35:25.756Z,24.35
2023-04-28T22:37:54.964Z,25.10
2023-04-28T22:40:23.958Z,24.05
2023-04-28T22:42:53.048Z,24.58
2023-04-28T22:45:22.251Z,20.77
2023-04-28T22:47:51.368Z,24.15
2023-04-28T22:50:22.494Z,25.00
2023-04-28T22:52:51.506Z,22.27
2023-04-28T22:55:20.669Z,28.10
2023-04-28T22:57:49.781Z,21.75
2023-04-28T23:00:19.018Z,21.73
2023-04-28T23:02:48.191Z,21.73
2023-04-28T23:05:17.312Z,24.10
2023-04-28T23:07:48.200Z,19.27
2023-04-28T23:10:19.184Z,17.98
2023-04-28T23:12:48.330Z,21.98
2023-04-28T23:15:17.554Z,23.70
2023-04-28T23:17:46.627Z,22.42
2023-04-28T23:20:15.904Z,26.42
2023-04-28T23:22:46.551Z,21.52
2023-04-28T23:25:16.052Z,21.55
2023-04-28T23:27:45.067Z,21.35
2023-04-28T23:30:14.775Z,18.25
2023-04-28T23:32:44.601Z,22.15
2023-04-28T23:35:14.826Z,19.95
2023-04-28T23:37:43.862Z,18.17
2023-04-28T23:40:15.095Z,20.42
2023-04-28T23:42:44.056Z,19.38
2023-04-28T23:45:13.395Z,17.35
2023-04-28T23:47:42.641Z,16.63
2023-04-28T23:50:12.385Z,17.38
2023-04-28T23:52:41.670Z,15.80
2023-04-28T23:55:13.724Z,15.75
2023-04-28T23:57:44.414Z,19.52
